createdAt,value
2023-05-07T00:00:35.005Z,2.30
2023-05-07T00:03:02.416Z,1.92
2023-05-07T00:05:29.376Z,2.22
2023-05-07T00:07:57.040Z,2.20
2023-05-07T00:10:26.904Z,1.83
2023-05-07T00:12:53.713Z,1.75
2023-05-07T00:17:48.385Z,2.58
2023-05-07T00:20:16.066Z,2.45
2023-05-07T00:22:43.935Z,2.30
2023-05-07T00:25:12.413Z,2.25
2023-05-07T00:27:40.178Z,2.60
2023-05-07T00:30:09.533Z,2.20
2023-05-07T00:32:40.184Z,2.53
2023-05-07T00:35:08.121Z,2.38
2023-05-07T00:37:35.149Z,2.30
2023-05-07T00:40:04.901Z,2.53
2023-05-07T00:42:36.114Z,2.13
2023-05-07T00:47:59.135Z,2.60
2023-05-07T00:50:28.205Z,2.55
2023-05-07T00:52:57.534Z,2.05
2023-05-07T00:55:31.406Z,2.80
2023-05-07T00:57:59.584Z,2.30
2023-05-07T01:00:26.822Z,2.50
2023-05-07T01:02:54.232Z,2.20
2023-05-07T01:05:25.640Z,2.17
2023-05-07T01:07:58.877Z,2.25
2023-05-07T01:10:36.148Z,1.90
2023-05-07T01:13:03.958Z,2.47
2023-05-07T01:15:33.122Z,2.20
2023-05-07T01:18:05.515Z,2.10
2023-05-07T01:20:39.827Z,2.53
2023-05-07T01:23:09.513Z,2.58
2023-05-07T01:25:36.775Z,1.92
2023-05-07T01:28:03.822Z,1.83
2023-05-07T01:30:36.059Z,2.50
2023-05-07T01:33:10.151Z,2.00
2023-05-07T01:35:44.885Z,1.80
2023-05-07T01:38:12.442Z,2.17
2023-05-07T01:40:39.612Z,2.53
2023-05-07T01:43:07.364Z,2.60
2023-05-07T01:45:36.351Z,2.70
2023-05-07T01:48:08.144Z,2.20
2023-05-07T01:50:35.776Z,2.50
2023-05-07T01:53:03.644Z,2.60
2023-05-07T01:55:30.695Z,3.15
2023-05-07T02:00:24.583Z,2.10
2023-05-07T02:02:51.504Z,2.65
2023-05-07T02:05:35.752Z,2.75
2023-05-07T02:08:12.245Z,2.70
2023-05-07T02:10:39.318Z,2.08
2023-05-07T02:13:07.551Z,2.50
2023-05-07T02:15:34.896Z,3.30
2023-05-07T02:18:09.891Z,2.97
2023-05-07T02:20:37.098Z,2.28
2023-05-07T02:23:04.162Z,2.97
2023-05-07T02:25:31.439Z,2.80
2023-05-07T02:27:59.747Z,2.58
2023-05-07T02:30:39.315Z,2.33
2023-05-07T02:33:07.834Z,2.30
2023-05-07T02:35:34.952Z,2.85
2023-05-07T02:38:01.817Z,2.63
2023-05-07T02:42:55.431Z,2.25
2023-05-07T02:45:22.488Z,2.80
2023-05-07T02:47:52.386Z,2.95
2023-05-07T02:50:19.498Z,2.22
2023-05-07T02:52:46.626Z,3.05
2023-05-07T02:55:13.965Z,2.53
2023-05-07T02:57:40.710Z,2.70
2023-05-07T03:00:13.104Z,2.72
2023-05-07T03:02:43.610Z,2.35
2023-05-07T03:05:11.826Z,2.88
2023-05-07T03:07:39.335Z,2.80
2023-05-07T03:10:07.658Z,2.85
2023-05-07T03:12:34.508Z,2.72
2023-05-07T03:15:01.234Z,2.72
2023-05-07T03:17:28.215Z,2.97
2023-05-07T03:22:22.264Z,3.22
2023-05-07T03:24:48.980Z,2.70
2023-05-07T03:27:15.844Z,2.70
2023-05-07T03:33:57.986Z,2.80
2023-05-07T03:36:28.388Z,2.70
2023-05-07T03:38:58.744Z,2.63
2023-05-07T03:41:33.654Z,3.15
2023-05-07T03:44:00.617Z,3.30
2023-05-07T03:46:29.053Z,3.20
2023-05-07T03:48:56.224Z,2.47
2023-05-07T03:53:49.806Z,2.83
2023-05-07T03:58:46.482Z,2.55
2023-05-07T04:01:13.253Z,2.92
2023-05-07T04:03:40.473Z,2.47
2023-05-07T04:06:07.489Z,2.80
2023-05-07T04:08:35.924Z,2.63
2023-05-07T04:11:03.916Z,3.08
2023-05-07T04:13:32.847Z,2.63
2023-05-07T04:16:04.049Z,2.38
2023-05-07T04:18:31.591Z,2.72
2023-05-07T04:20:58.546Z,2.05
2023-05-07T04:23:25.338Z,2.60
2023-05-07T04:25:53.068Z,2.85
2023-05-07T04:28:28.718Z,2.60
2023-05-07T04:33:23.192Z,2.60
2023-05-07T04:35:50.936Z,2.40
2023-05-07T04:40:48.160Z,2.33
2023-05-07T04:43:19.204Z,2.63
2023-05-07T04:45:52.178Z,2.33
2023-05-07T04:48:21.364Z,2.88
2023-05-07T04:50:50.440Z,2.95
2023-05-07T04:53:18.815Z,3.33
2023-05-07T04:55:46.313Z,3.33
2023-05-07T04:58:13.547Z,2.13
2023-05-07T05:00:43.339Z,2.60
2023-05-07T05:03:10.742Z,2.85
2023-05-07T05:05:39.201Z,2.88
2023-05-07T05:08:06.455Z,2.72
2023-05-07T05:10:36.526Z,2.88
2023-05-07T05:13:03.391Z,2.72
2023-05-07T05:15:33.162Z,3.13
2023-05-07T05:18:00.832Z,2.90
2023-05-07T05:22:54.345Z,3.10
2023-05-07T05:27:48.223Z,2.63
2023-05-07T05:30:15.927Z,2.60
2023-05-07T05:32:45.936Z,2.85
2023-05-07T05:35:13.005Z,2.88
2023-05-07T05:37:41.134Z,2.40
2023-05-07T05:40:08.824Z,3.15
2023-05-07T05:42:35.612Z,2.42
2023-05-07T05:45:02.531Z,2.67
2023-05-07T05:47:31.517Z,2.30
2023-05-07T05:49:58.342Z,2.08
2023-05-07T05:52:26.051Z,2.13
2023-05-07T05:54:54.780Z,2.60
2023-05-07T05:57:21.906Z,2.53
2023-05-07T05:59:48.835Z,2.30
2023-05-07T06:02:15.731Z,2.50
2023-05-07T06:04:43.718Z,2.60
2023-05-07T06:07:12.741Z,2.67
2023-05-07T06:09:39.536Z,2.22
2023-05-07T06:12:06.868Z,2.90
2023-05-07T06:14:34.108Z,2.35
2023-05-07T06:17:01.318Z,2.65
2023-05-07T06:19:29.140Z,2.40
2023-05-07T06:21:57.760Z,2.30
2023-05-07T06:24:25.708Z,2.00
2023-05-07T06:29:19.415Z,2.60
2023-05-07T06:31:46.590Z,2.47
2023-05-07T06:34:17.522Z,2.50
2023-05-07T06:36:44.558Z,2.80
2023-05-07T06:39:40.670Z,2.78
2023-05-07T06:42:07.781Z,2.50
2023-05-07T06:44:41.559Z,2.65
2023-05-07T06:47:13.821Z,2.42
2023-05-07T06:49:42.279Z,2.58
2023-05-07T06:52:09.113Z,2.80
2023-05-07T06:54:36.510Z,2.42
2023-05-07T06:57:03.847Z,3.20
2023-05-07T06:59:31.890Z,3.25
2023-05-07T07:02:00.063Z,3.17
2023-05-07T07:04:27.117Z,3.10
2023-05-07T07:07:01.321Z,2.50
2023-05-07T07:09:29.240Z,2.83
2023-05-07T07:11:56.008Z,2.80
2023-05-07T07:14:22.927Z,2.58
2023-05-07T07:16:51.933Z,2.40
2023-05-07T07:19:21.309Z,2.95
2023-05-07T07:21:50.767Z,3.38
2023-05-07T07:24:22.022Z,3.00
2023-05-07T07:26:52.146Z,3.42
2023-05-07T07:29:20.752Z,2.97
2023-05-07T07:31:50.347Z,3.28
2023-05-07T07:34:18.645Z,3.10
2023-05-07T07:36:47.011Z,2.80
2023-05-07T07:39:17.379Z,3.35
2023-05-07T07:41:45.445Z,3.40
2023-05-07T07:44:15.927Z,3.55
2023-05-07T07:46:46.596Z,2.60
2023-05-07T07:49:14.030Z,3.38
2023-05-07T07:51:41.696Z,3.42
2023-05-07T07:54:10.570Z,3.10
2023-05-07T07:56:38.063Z,3.05
2023-05-07T07:59:06.406Z,3.58
2023-05-07T08:01:34.627Z,3.38
2023-05-07T08:04:04.113Z,3.65
2023-05-07T08:06:33.462Z,2.92
2023-05-07T08:09:00.356Z,3.10
2023-05-07T08:11:27.275Z,3.05
2023-05-07T08:13:56.977Z,3.15
2023-05-07T08:16:24.486Z,3.60
2023-05-07T08:18:53.214Z,2.88
2023-05-07T08:21:21.132Z,3.38
2023-05-07T08:23:47.962Z,3.65
2023-05-07T08:26:14.887Z,3.53
2023-05-07T08:28:42.745Z,3.78
2023-05-07T08:31:09.479Z,3.55
2023-05-07T08:33:39.662Z,3.63
2023-05-07T08:36:06.584Z,4.00
2023-05-07T08:38:33.556Z,3.20
2023-05-07T08:41:00.610Z,3.65
2023-05-07T08:43:32.113Z,3.55
2023-05-07T08:46:03.313Z,3.50
2023-05-07T08:48:33.922Z,3.33
2023-05-07T08:51:09.907Z,3.60
2023-05-07T08:53:39.724Z,3.17
2023-05-07T08:56:07.836Z,3.95
2023-05-07T08:58:35.560Z,3.38
2023-05-07T09:01:11.459Z,4.15
2023-05-07T09:03:40.027Z,3.60
2023-05-07T09:06:07.602Z,4.32
2023-05-07T09:08:36.525Z,3.40
2023-05-07T09:11:09.109Z,3.95
2023-05-07T09:13:38.565Z,3.85
2023-05-07T09:16:13.685Z,2.88
2023-05-07T09:21:16.778Z,3.90
2023-05-07T09:23:44.407Z,3.83
2023-05-07T09:26:13.010Z,3.53
2023-05-07T09:28:42.821Z,4.10
2023-05-07T09:31:13.147Z,3.47
2023-05-07T09:33:41.151Z,2.95
2023-05-07T09:36:11.196Z,3.58
2023-05-07T09:38:41.494Z,3.47
2023-05-07T09:41:11.703Z,3.65
2023-05-07T09:44:00.925Z,3.33
2023-05-07T09:46:37.234Z,3.60
2023-05-07T09:49:21.402Z,3.80
2023-05-07T09:51:51.394Z,3.40
2023-05-07T09:54:20.570Z,2.65
2023-05-07T09:56:52.956Z,2.83
2023-05-07T09:59:24.031Z,3.30
2023-05-07T10:01:55.507Z,3.30
2023-05-07T10:04:23.067Z,3.65
2023-05-07T10:06:51.244Z,3.30
2023-05-07T10:09:19.260Z,3.13
2023-05-07T10:11:53.074Z,3.85
2023-05-07T10:14:22.804Z,3.28
2023-05-07T10:16:50.740Z,3.28
2023-05-07T10:19:18.939Z,3.25
2023-05-07T10:21:57.973Z,3.63
2023-05-07T10:24:30.001Z,2.92
2023-05-07T10:27:01.603Z,3.00
2023-05-07T10:29:29.584Z,2.95
2023-05-07T10:32:19.121Z,2.92
2023-05-07T10:34:50.310Z,3.03
2023-05-07T10:37:18.886Z,3.58
2023-05-07T10:39:50.651Z,2.58
2023-05-07T10:42:18.006Z,2.90
2023-05-07T10:44:50.883Z,2.58
2023-05-07T10:47:24.343Z,2.30
2023-05-07T10:50:05.050Z,2.53
2023-05-07T10:52:32.520Z,2.85
2023-05-07T10:55:22.251Z,2.50
2023-05-07T10:58:31.317Z,2.80
2023-05-07T11:01:51.784Z,1.83
2023-05-07T11:04:27.282Z,2.40
2023-05-07T11:07:10.034Z,2.38
2023-05-07T11:09:54.435Z,2.17
2023-05-07T11:12:39.578Z,1.92
2023-05-07T11:15:16.622Z,2.40
2023-05-07T11:17:55.614Z,2.13
2023-05-07T11:20:53.297Z,2.00
2023-05-07T11:23:59.873Z,1.90
2023-05-07T11:26:50.339Z,2.20
2023-05-07T11:29:23.765Z,2.78
2023-05-07T11:31:56.626Z,2.15
2023-05-07T11:34:27.565Z,2.45
2023-05-07T11:36:57.518Z,1.90
2023-05-07T11:39:37.084Z,1.90
2023-05-07T11:42:04.133Z,1.90
2023-05-07T11:44:47.154Z,1.88
2023-05-07T11:47:21.482Z,1.70
2023-05-07T11:49:53.785Z,1.50
2023-05-07T11:52:22.716Z,1.70
2023-05-07T11:54:54.006Z,1.95
2023-05-07T11:57:20.951Z,2.05
2023-05-07T11:59:56.505Z,2.08
2023-05-07T12:02:26.180Z,1.80
2023-05-07T12:04:54.189Z,1.90
2023-05-07T12:07:22.193Z,1.98
2023-05-07T12:09:51.477Z,1.63
2023-05-07T12:12:19.482Z,2.00
2023-05-07T12:14:47.075Z,1.80
2023-05-07T12:17:15.903Z,1.50
2023-05-07T12:19:44.503Z,1.80
2023-05-07T12:22:12.459Z,1.88
2023-05-07T12:24:48.435Z,1.90
2023-05-07T12:27:18.822Z,2.22
2023-05-07T12:29:48.000Z,1.67
2023-05-07T12:32:16.994Z,2.00
2023-05-07T12:34:45.719Z,1.80
2023-05-07T12:37:17.900Z,1.75
2023-05-07T12:39:49.994Z,2.00
2023-05-07T12:42:20.983Z,2.25
2023-05-07T12:44:47.982Z,2.10
2023-05-07T12:47:16.532Z,1.70
2023-05-07T12:49:43.995Z,1.60
2023-05-07T12:52:12.918Z,2.00
2023-05-07T12:54:40.003Z,1.63
2023-05-07T12:57:10.554Z,1.90
2023-05-07T12:59:39.729Z,1.60
2023-05-07T13:02:07.372Z,1.67
2023-05-07T13:04:36.024Z,1.52
2023-05-07T13:07:03.814Z,1.67
2023-05-07T13:09:31.825Z,1.42
2023-05-07T13:12:02.229Z,1.27
2023-05-07T13:14:29.120Z,1.67
2023-05-07T13:16:55.995Z,1.88
2023-05-07T13:19:22.844Z,1.95
2023-05-07T13:21:50.931Z,1.70
2023-05-07T13:24:17.791Z,1.70
2023-05-07T13:26:45.862Z,1.80
2023-05-07T13:29:13.231Z,1.63
2023-05-07T13:31:44.106Z,2.17
2023-05-07T13:34:11.641Z,1.52
2023-05-07T13:36:40.785Z,1.90
2023-05-07T13:39:07.935Z,1.55
2023-05-07T13:41:34.888Z,2.17
2023-05-07T13:44:01.821Z,2.03
2023-05-07T13:46:28.809Z,2.50
2023-05-07T13:48:55.647Z,3.08
2023-05-07T13:51:23.026Z,1.88
2023-05-07T13:53:49.838Z,1.92
2023-05-07T13:56:16.952Z,2.25
2023-05-07T13:58:56.266Z,2.40
2023-05-07T14:01:26.782Z,2.33
2023-05-07T14:03:54.183Z,2.20
2023-05-07T14:06:21.419Z,1.75
2023-05-07T14:08:49.529Z,1.83
2023-05-07T14:11:16.380Z,1.52
2023-05-07T14:13:43.224Z,1.80
2023-05-07T14:16:10.166Z,1.70
2023-05-07T14:18:38.065Z,1.80
2023-05-07T14:21:07.346Z,1.45
2023-05-07T14:23:34.573Z,1.60
2023-05-07T14:26:01.468Z,1.90
2023-05-07T14:28:28.248Z,2.10
2023-05-07T14:30:55.094Z,1.85
2023-05-07T14:33:21.884Z,1.70
2023-05-07T14:35:50.298Z,2.15
2023-05-07T14:38:17.193Z,2.20
2023-05-07T14:40:44.143Z,5.43
2023-05-07T14:43:11.458Z,1.90
2023-05-07T14:45:39.350Z,1.95
2023-05-07T14:48:06.621Z,3.22
2023-05-07T14:50:34.429Z,2.92
2023-05-07T14:53:01.259Z,2.78
2023-05-07T14:55:28.132Z,3.25
2023-05-07T14:57:54.943Z,3.35
2023-05-07T15:00:22.028Z,2.90
2023-05-07T15:02:48.940Z,3.30
2023-05-07T15:05:15.835Z,2.60
2023-05-07T15:07:42.693Z,2.28
2023-05-07T15:10:09.716Z,3.37
2023-05-07T15:12:36.503Z,2.60
2023-05-07T15:15:03.803Z,2.67
2023-05-07T15:17:30.625Z,3.78
2023-05-07T15:19:57.678Z,4.03
2023-05-07T15:22:24.572Z,4.40
2023-05-07T15:24:51.347Z,4.95
2023-05-07T15:27:18.201Z,5.97
2023-05-07T15:29:45.010Z,3.75
2023-05-07T15:32:12.088Z,2.40
2023-05-07T15:34:38.836Z,2.13
2023-05-07T15:37:05.754Z,2.90
2023-05-07T15:39:32.468Z,5.90
2023-05-07T15:41:59.130Z,3.67
2023-05-07T15:44:29.386Z,2.72
2023-05-07T15:46:56.165Z,2.30
2023-05-07T15:49:23.057Z,2.50
2023-05-07T15:51:51.760Z,2.47
2023-05-07T15:54:20.899Z,2.05
2023-05-07T15:56:48.939Z,2.00
2023-05-07T15:59:17.347Z,2.55
2023-05-07T16:01:45.226Z,1.90
2023-05-07T16:04:12.155Z,5.50
2023-05-07T16:06:38.893Z,4.32
2023-05-07T16:09:05.717Z,3.33
2023-05-07T16:11:33.875Z,3.22
2023-05-07T16:14:01.390Z,2.58
2023-05-07T16:16:30.053Z,2.40
2023-05-07T16:18:57.368Z,2.65
2023-05-07T16:21:24.184Z,2.70
2023-05-07T16:23:51.145Z,2.60
2023-05-07T16:26:18.036Z,2.53
2023-05-07T16:28:45.393Z,2.38
2023-05-07T16:31:12.219Z,2.67
2023-05-07T16:33:39.120Z,2.80
2023-05-07T16:36:07.683Z,2.85
2023-05-07T16:38:34.760Z,2.38
2023-05-07T16:41:06.015Z,2.63
2023-05-07T16:43:32.976Z,2.97
2023-05-07T16:46:00.139Z,3.53
2023-05-07T16:48:26.954Z,3.55
2023-05-07T16:50:53.874Z,2.70
2023-05-07T16:53:20.723Z,3.10
2023-05-07T16:55:47.658Z,3.38
2023-05-07T16:58:15.414Z,2.58
2023-05-07T17:00:50.569Z,3.50
2023-05-07T17:03:19.221Z,2.65
2023-05-07T17:05:46.717Z,4.95
2023-05-07T17:08:13.942Z,3.63
2023-05-07T17:10:41.596Z,3.25
2023-05-07T17:13:08.528Z,3.42
2023-05-07T17:15:35.464Z,2.50
2023-05-07T17:18:02.549Z,3.17
2023-05-07T17:20:29.429Z,2.85
2023-05-07T17:22:56.429Z,2.63
2023-05-07T17:25:23.593Z,2.60
2023-05-07T17:27:50.719Z,2.90
2023-05-07T17:30:18.051Z,3.63
2023-05-07T17:35:12.007Z,2.40
2023-05-07T17:37:38.822Z,3.60
2023-05-07T17:42:32.880Z,2.55
2023-05-07T17:47:26.320Z,2.67
2023-05-07T17:49:53.097Z,3.03
2023-05-07T17:54:46.543Z,3.47
2023-05-07T17:59:40.271Z,3.50
2023-05-07T18:02:07.134Z,3.17
2023-05-07T18:07:00.653Z,3.17
2023-05-07T18:09:27.454Z,3.22
2023-05-07T18:11:54.585Z,3.72
2023-05-07T18:14:24.403Z,3.03
2023-05-07T18:16:51.501Z,3.67
2023-05-07T18:19:18.377Z,3.92
2023-05-07T18:21:45.425Z,3.92
2023-05-07T18:24:12.265Z,3.47
2023-05-07T18:26:39.114Z,2.78
2023-05-07T18:29:05.841Z,3.58
2023-05-07T18:34:01.478Z,3.70
2023-05-07T18:36:28.352Z,3.92
2023-05-07T18:38:55.248Z,3.97
2023-05-07T18:41:22.081Z,3.60
2023-05-07T18:46:15.722Z,3.33
2023-05-07T18:48:42.578Z,3.30
2023-05-07T18:51:12.517Z,3.55
2023-05-07T18:53:40.288Z,3.00
2023-05-07T18:56:08.644Z,3.08
2023-05-07T18:58:36.004Z,3.20
2023-05-07T19:01:07.806Z,3.17
2023-05-07T19:03:35.724Z,3.35
2023-05-07T19:06:03.283Z,3.58
2023-05-07T19:08:30.219Z,3.47
2023-05-07T19:10:57.049Z,3.13
2023-05-07T19:13:25.783Z,3.05
2023-05-07T19:15:53.422Z,3.47
2023-05-07T19:18:20.465Z,3.53
2023-05-07T19:20:49.098Z,4.47
2023-05-07T19:23:16.335Z,3.65
2023-05-07T19:25:43.134Z,3.53
2023-05-07T19:30:40.828Z,4.40
2023-05-07T19:33:07.810Z,3.25
2023-05-07T19:35:35.384Z,3.88
2023-05-07T19:38:02.722Z,4.20
2023-05-07T19:40:29.515Z,4.47
2023-05-07T19:45:23.142Z,4.32
2023-05-07T19:47:49.968Z,5.15
2023-05-07T19:52:43.648Z,5.20
2023-05-07T19:55:10.737Z,6.68
2023-05-07T19:57:37.558Z,4.95
2023-05-07T20:02:39.839Z,5.18
2023-05-07T20:07:33.370Z,4.90
2023-05-07T20:12:26.878Z,4.88
2023-05-07T20:17:20.202Z,5.40
2023-05-07T20:22:13.715Z,6.40
2023-05-07T20:27:07.132Z,6.95
2023-05-07T20:32:01.245Z,7.43
2023-05-07T20:34:28.574Z,7.32
2023-05-07T20:36:55.391Z,8.38
2023-05-07T20:41:48.856Z,8.52
2023-05-07T20:46:43.824Z,9.77
2023-05-07T20:49:10.598Z,11.48
2023-05-07T20:54:04.046Z,11.13
2023-05-07T20:58:57.639Z,10.30
2023-05-07T21:01:24.624Z,10.40
2023-05-07T21:03:54.030Z,9.80
2023-05-07T21:06:21.051Z,10.63
2023-05-07T21:11:14.601Z,9.18
2023-05-07T21:16:10.123Z,10.60
2023-05-07T21:18:37.602Z,8.88
2023-05-07T21:21:09.028Z,9.55
2023-05-07T21:23:36.765Z,7.88
2023-05-07T21:26:04.235Z,9.98
2023-05-07T21:28:30.918Z,10.10
2023-05-07T21:33:24.497Z,9.18
2023-05-07T21:35:51.399Z,10.68
2023-05-07T21:38:18.803Z,10.10
2023-05-07T21:40:45.720Z,9.60
2023-05-07T21:43:12.437Z,10.55
2023-05-07T21:48:06.393Z,10.90
2023-05-07T21:50:33.353Z,10.25
2023-05-07T21:53:00.220Z,8.45
2023-05-07T21:58:04.184Z,9.73
2023-05-07T22:00:32.796Z,11.23
2023-05-07T22:02:59.786Z,10.65
2023-05-07T22:05:26.743Z,9.75
2023-05-07T22:07:53.588Z,10.65
2023-05-07T22:12:49.957Z,10.02
2023-05-07T22:15:17.052Z,10.75
2023-05-07T22:17:43.864Z,10.13
2023-05-07T22:20:11.484Z,10.13
2023-05-07T22:22:50.979Z,8.98
2023-05-07T22:25:19.204Z,8.38
2023-05-07T22:27:46.303Z,9.25
2023-05-07T22:30:13.609Z,9.23
2023-05-07T22:32:43.066Z,10.07
2023-05-07T22:35:10.920Z,11.07
2023-05-07T22:37:37.916Z,9.15
2023-05-07T22:40:05.446Z,10.88
2023-05-07T22:42:32.337Z,9.27
2023-05-07T22:44:59.273Z,7.88
2023-05-07T22:47:29.956Z,9.70
2023-05-07T22:49:57.126Z,8.50
2023-05-07T22:52:24.116Z,8.45
2023-05-07T22:54:50.948Z,8.25
2023-05-07T22:57:17.866Z,7.75
2023-05-07T23:02:11.444Z,9.73
2023-05-07T23:04:38.312Z,8.80
2023-05-07T23:09:31.856Z,7.85
2023-05-07T23:14:25.424Z,10.70
2023-05-07T23:19:18.931Z,9.23
2023-05-07T23:24:12.637Z,10.30
2023-05-07T23:29:06.130Z,9.65
2023-05-07T23:34:00.020Z,9.77
2023-05-07T23:38:53.624Z,9.15
2023-05-07T23:43:47.728Z,9.88
2023-05-07T23:46:14.604Z,9.57
2023-05-07T23:48:41.473Z,9.48
2023-05-07T23:53:34.983Z,11.85
2023-05-07T23:58:28.757Z,11.25
